createdAt,value
2019-03-03T00:04:21.228Z,7.35
2019-03-03T00:09:26.830Z,7.18
2019-03-03T00:14:34.067Z,7.43
2019-03-03T00:19:42.681Z,7.35
2019-03-03T00:24:48.740Z,7.32
2019-03-03T00:29:54.369Z,7.50
2019-03-03T00:35:00.345Z,7.54
2019-03-03T00:40:37.903Z,7.51
2019-03-03T00:45:56.176Z,7.54
2019-03-03T00:51:30.679Z,7.80
2019-03-03T00:56:58.260Z,7.84
2019-03-03T01:02:23.492Z,7.89
2019-03-03T01:07:50.783Z,7.95
2019-03-03T01:13:08.347Z,8.03
2019-03-03T01:18:35.573Z,7.97
2019-03-03T01:24:03.933Z,8.20
2019-03-03T01:29:09.944Z,8.23
2019-03-03T01:34:23.370Z,8.17
2019-03-03T01:39:29.781Z,8.29
2019-03-03T01:44:35.372Z,8.43
2019-03-03T01:49:43.293Z,8.45
2019-03-03T01:54:52.087Z,8.31
2019-03-03T01:59:59.468Z,8.49
2019-03-03T02:05:05.236Z,8.45
2019-03-03T02:10:11.297Z,8.34
2019-03-03T02:15:17.821Z,8.35
2019-03-03T02:20:23.739Z,8.41
2019-03-03T02:25:29.291Z,8.37
2019-03-03T02:30:35.320Z,8.44
2019-03-03T02:35:46.494Z,8.49
2019-03-03T02:40:54.618Z,8.38
2019-03-03T02:46:00.246Z,8.55
2019-03-03T02:51:12.452Z,8.31
2019-03-03T02:56:24.688Z,8.47
2019-03-03T03:01:29.724Z,8.59
2019-03-03T03:07:09.617Z,8.48
2019-03-03T03:12:27.975Z,8.43
2019-03-03T03:17:55.542Z,8.53
2019-03-03T03:23:31.191Z,8.51
2019-03-03T03:28:44.997Z,8.59
2019-03-03T03:34:06.143Z,8.67
2019-03-03T03:39:21.767Z,8.77
2019-03-03T03:44:45.938Z,8.65
2019-03-03T03:50:16.145Z,8.60
2019-03-03T03:55:39.055Z,8.67
2019-03-03T04:00:51.355Z,8.53
2019-03-03T04:06:17.290Z,8.67
2019-03-03T04:11:40.639Z,8.64
2019-03-03T04:17:03.108Z,8.69
2019-03-03T04:22:44.378Z,8.80
2019-03-03T04:28:07.041Z,8.73
2019-03-03T04:33:26.816Z,8.80
2019-03-03T04:39:01.217Z,8.88
2019-03-03T04:44:30.330Z,8.96
2019-03-03T04:50:06.794Z,9.03
2019-03-03T04:55:30.232Z,8.99
2019-03-03T05:00:53.903Z,9.12
2019-03-03T05:06:18.166Z,9.01
2019-03-03T05:12:37.675Z,9.00
2019-03-03T05:18:05.081Z,9.17
2019-03-03T05:23:15.120Z,9.27
2019-03-03T05:28:21.733Z,8.96
2019-03-03T05:33:28.137Z,9.15
2019-03-03T05:38:38.724Z,9.15
2019-03-03T05:43:46.645Z,9.13
2019-03-03T05:48:54.899Z,9.05
2019-03-03T05:54:03.273Z,9.18
2019-03-03T05:59:13.109Z,9.12
2019-03-03T06:04:19.807Z,8.99
2019-03-03T06:09:26.607Z,9.17
2019-03-03T06:14:34.208Z,9.08
2019-03-03T06:19:49.504Z,9.03
2019-03-03T06:24:58.355Z,9.13
2019-03-03T06:30:08.318Z,9.09
2019-03-03T06:35:17.397Z,9.25
2019-03-03T06:40:23.289Z,9.11
2019-03-03T06:45:29.457Z,9.35
2019-03-03T06:50:35.676Z,9.28
2019-03-03T06:55:42.241Z,9.23
2019-03-03T07:00:48.756Z,9.39
2019-03-03T07:05:55.461Z,9.08
2019-03-03T07:11:07.682Z,9.02
2019-03-03T07:16:15.250Z,9.04
2019-03-03T07:21:21.684Z,9.17
2019-03-03T07:26:31.850Z,9.45
2019-03-03T07:31:38.100Z,9.26
2019-03-03T07:36:44.142Z,9.66
2019-03-03T07:41:50.602Z,9.77
2019-03-03T07:46:57.414Z,10.09
2019-03-03T07:52:13.015Z,10.14
2019-03-03T07:57:23.105Z,10.04
2019-03-03T08:02:32.559Z,10.13
2019-03-03T08:07:55.142Z,10.12
2019-03-03T08:13:09.695Z,10.07
2019-03-03T08:18:19.736Z,10.13
2019-03-03T08:23:28.496Z,10.43
2019-03-03T08:28:34.975Z,10.45
2019-03-03T08:33:48.972Z,10.44
2019-03-03T08:38:55.430Z,10.86
2019-03-03T08:44:08.661Z,10.57
2019-03-03T08:49:21.697Z,10.51
2019-03-03T08:55:00.061Z,10.75
2019-03-03T09:00:21.750Z,10.84
2019-03-03T09:05:49.411Z,10.90
2019-03-03T09:11:09.284Z,11.58
2019-03-03T09:16:40.800Z,11.34
2019-03-03T09:22:06.569Z,11.72
2019-03-03T09:27:31.509Z,11.94
2019-03-03T09:32:55.351Z,11.96
2019-03-03T09:38:20.186Z,11.67
2019-03-03T09:43:43.840Z,11.41
2019-03-03T09:49:23.049Z,11.36
2019-03-03T09:54:44.609Z,11.17
2019-03-03T10:00:14.859Z,11.20
2019-03-03T10:05:40.341Z,11.31
2019-03-03T10:11:06.709Z,11.62
2019-03-03T10:16:41.577Z,11.60
2019-03-03T10:22:20.663Z,11.56
2019-03-03T10:27:50.457Z,11.70
2019-03-03T10:33:22.004Z,11.85
2019-03-03T10:38:51.177Z,11.79
2019-03-03T10:44:07.294Z,11.68
2019-03-03T10:49:44.579Z,11.62
2019-03-03T10:55:23.025Z,11.72
2019-03-03T11:00:44.556Z,11.71
2019-03-03T11:06:22.304Z,11.80
2019-03-03T11:11:58.022Z,11.60
2019-03-03T11:17:24.083Z,12.06
2019-03-03T11:22:50.613Z,12.23
2019-03-03T11:28:08.589Z,12.13
2019-03-03T11:33:35.745Z,12.06
2019-03-03T11:38:53.392Z,11.92
2019-03-03T11:44:21.310Z,12.09
2019-03-03T11:49:52.681Z,12.32
2019-03-03T11:55:28.287Z,12.34
2019-03-03T12:00:52.199Z,12.56
2019-03-03T12:06:13.525Z,12.80
2019-03-03T12:11:56.906Z,12.54
2019-03-03T12:17:40.842Z,12.83
2019-03-03T12:23:17.191Z,12.79
2019-03-03T12:29:02.409Z,12.67
2019-03-03T12:34:39.864Z,12.70
2019-03-03T12:40:10.627Z,12.90
2019-03-03T12:45:52.367Z,12.77
2019-03-03T12:51:34.463Z,12.73
2019-03-03T12:57:05.356Z,12.76
2019-03-03T13:02:40.038Z,13.10
2019-03-03T13:08:14.439Z,13.25
2019-03-03T13:13:42.851Z,13.19
2019-03-03T13:19:25.442Z,12.91
2019-03-03T13:24:53.260Z,13.24
2019-03-03T13:30:30.129Z,13.26
2019-03-03T13:35:57.071Z,13.01
2019-03-03T13:41:39.018Z,13.26
2019-03-03T13:46:46.930Z,12.85
2019-03-03T13:51:57.216Z,12.51
2019-03-03T13:57:10.572Z,12.55
2019-03-03T14:02:17.052Z,12.63
2019-03-03T14:07:29.801Z,12.92
2019-03-03T14:12:39.465Z,12.73
2019-03-03T14:17:47.960Z,12.36
2019-03-03T14:22:58.438Z,12.31
2019-03-03T14:28:12.649Z,11.82
2019-03-03T14:33:18.525Z,12.05
2019-03-03T14:38:24.461Z,12.05
2019-03-03T14:43:32.698Z,12.18
2019-03-03T14:48:41.383Z,12.01
2019-03-03T14:53:48.812Z,12.22
2019-03-03T14:59:04.986Z,12.26
2019-03-03T15:04:11.102Z,12.12
2019-03-03T15:09:22.217Z,12.27
2019-03-03T15:14:35.348Z,12.18
2019-03-03T15:19:41.562Z,11.96
2019-03-03T15:24:47.763Z,12.08
2019-03-03T15:29:54.659Z,12.06
2019-03-03T15:35:10.614Z,11.96
2019-03-03T15:40:18.866Z,12.04
2019-03-03T15:45:26.096Z,11.80
2019-03-03T15:50:34.052Z,11.89
2019-03-03T15:55:44.340Z,11.81
2019-03-03T16:00:50.907Z,11.64
2019-03-03T16:05:59.871Z,11.65
2019-03-03T16:11:09.677Z,11.54
2019-03-03T16:16:22.910Z,11.51
2019-03-03T16:21:30.105Z,11.20
2019-03-03T16:26:35.930Z,11.42
2019-03-03T16:31:43.670Z,11.25
2019-03-03T16:37:13.897Z,11.21
2019-03-03T16:42:19.727Z,11.17
2019-03-03T16:47:31.510Z,11.16
2019-03-03T16:52:39.119Z,11.06
2019-03-03T16:57:47.569Z,10.84
2019-03-03T17:02:54.872Z,10.98
2019-03-03T17:08:11.143Z,10.88
2019-03-03T17:13:17.431Z,10.99
2019-03-03T17:18:26.514Z,10.79
2019-03-03T17:23:36.301Z,10.65
2019-03-03T17:28:44.319Z,10.84
2019-03-03T17:33:51.247Z,10.66
2019-03-03T17:39:01.197Z,10.60
2019-03-03T17:44:16.761Z,10.65
2019-03-03T17:49:24.641Z,10.52
2019-03-03T17:54:40.091Z,10.30
2019-03-03T17:59:48.744Z,10.42
2019-03-03T18:04:58.781Z,10.32
2019-03-03T18:10:16.655Z,10.22
2019-03-03T18:15:29.424Z,10.11
2019-03-03T18:20:35.733Z,10.03
2019-03-03T18:25:43.116Z,10.11
2019-03-03T18:30:52.891Z,10.05
2019-03-03T18:36:05.776Z,10.20
2019-03-03T18:41:20.185Z,10.18
2019-03-03T18:46:27.952Z,10.44
2019-03-03T18:51:36.364Z,10.39
2019-03-03T18:56:50.119Z,10.48
2019-03-03T19:01:59.962Z,10.48
2019-03-03T19:07:11.986Z,10.68
2019-03-03T19:12:20.409Z,10.46
2019-03-03T19:17:38.976Z,10.49
2019-03-03T19:22:50.003Z,10.41
2019-03-03T19:27:57.535Z,10.47
2019-03-03T19:33:15.530Z,10.41
2019-03-03T19:38:24.437Z,10.49
2019-03-03T19:43:33.715Z,10.52
2019-03-03T19:48:44.994Z,10.50
2019-03-03T19:53:59.873Z,10.76
2019-03-03T19:59:18.520Z,10.80
2019-03-03T20:04:42.692Z,10.76
2019-03-03T20:09:52.219Z,10.70
2019-03-03T20:14:58.922Z,10.74
2019-03-03T20:20:11.985Z,10.71
2019-03-03T20:25:24.159Z,10.66
2019-03-03T20:30:31.676Z,10.81
2019-03-03T20:35:39.236Z,10.74
2019-03-03T20:40:45.525Z,10.88
2019-03-03T20:45:52.841Z,10.82
2019-03-03T20:51:00.358Z,10.75
2019-03-03T20:56:08.833Z,10.77
2019-03-03T21:01:17.150Z,10.63
2019-03-03T21:06:26.026Z,10.67
2019-03-03T21:11:35.548Z,10.74
2019-03-03T21:16:42.127Z,10.68
2019-03-03T21:21:49.997Z,10.63
2019-03-03T21:26:56.966Z,10.78
2019-03-03T21:32:10.694Z,10.58
2019-03-03T21:37:19.423Z,10.58
2019-03-03T21:42:25.977Z,10.67
2019-03-03T21:47:32.081Z,10.77
2019-03-03T21:52:44.572Z,10.63
2019-03-03T21:57:51.903Z,10.63
2019-03-03T22:03:23.883Z,10.66
2019-03-03T22:08:47.820Z,10.68
2019-03-03T22:13:55.475Z,10.65
2019-03-03T22:19:03.328Z,10.71
2019-03-03T22:24:09.262Z,10.86
2019-03-03T22:29:17.597Z,10.80
2019-03-03T22:34:23.184Z,10.93
2019-03-03T22:39:28.804Z,10.82
2019-03-03T22:44:35.266Z,10.97
2019-03-03T22:50:17.250Z,11.04
2019-03-03T22:55:23.007Z,10.95
2019-03-03T23:00:51.772Z,10.92
2019-03-03T23:06:17.827Z,10.88
2019-03-03T23:11:51.225Z,11.04
2019-03-03T23:18:06.095Z,11.03
2019-03-03T23:24:08.275Z,10.99
2019-03-03T23:29:18.220Z,10.86
2019-03-03T23:34:28.684Z,11.03
2019-03-03T23:39:37.342Z,11.02
2019-03-03T23:44:46.394Z,10.79
